sensor_id;sensor_type;location;lat;lon;timestamp;P1;durP1;ratioP1;P2;durP2;ratioP2
17482;SDS011;8858;52.308;20.994;2022-12-15T00:00:28;38.13;;;24.17;;
17482;SDS011;8858;52.308;20.994;2022-12-15T00:03:14;37.07;;;24.03;;
17482;SDS011;8858;52.308;20.994;2022-12-15T00:06:02;39.70;;;24.17;;
17482;SDS011;8858;52.308;20.994;2022-12-15T00:08:48;38.13;;;23.43;;
17482;SDS011;8858;52.308;20.994;2022-12-15T00:11:41;38.50;;;23.47;;
17482;SDS011;8858;52.308;20.994;2022-12-15T00:14:28;39.63;;;23.97;;
17482;SDS011;8858;52.308;20.994;2022-12-15T00:17:14;38.63;;;24.30;;
17482;SDS011;8858;52.308;20.994;2022-12-15T00:19:59;39.00;;;23.53;;
17482;SDS011;8858;52.308;20.994;2022-12-15T00:22:46;39.50;;;23.73;;
17482;SDS011;8858;52.308;20.994;2022-12-15T00:25:32;37.10;;;23.43;;
17482;SDS011;8858;52.308;20.994;2022-12-15T00:28:21;38.60;;;24.83;;
17482;SDS011;8858;52.308;20.994;2022-12-15T00:31:07;37.37;;;23.93;;
17482;SDS011;8858;52.308;20.994;2022-12-15T00:33:54;36.70;;;22.93;;
17482;SDS011;8858;52.308;20.994;2022-12-15T00:36:40;37.03;;;24.30;;
17482;SDS011;8858;52.308;20.994;2022-12-15T00:39:26;33.80;;;22.17;;
17482;SDS011;8858;52.308;20.994;2022-12-15T00:41:58;34.07;;;23.10;;
17482;SDS011;8858;52.308;20.994;2022-12-15T00:44:28;35.73;;;23.20;;
17482;SDS011;8858;52.308;20.994;2022-12-15T00:47:00;37.43;;;23.70;;
17482;SDS011;8858;52.308;20.994;2022-12-15T00:49:28;38.10;;;23.20;;
17482;SDS011;8858;52.308;20.994;2022-12-15T00:52:16;34.90;;;23.20;;
17482;SDS011;8858;52.308;20.994;2022-12-15T00:55:03;36.53;;;23.50;;
17482;SDS011;8858;52.308;20.994;2022-12-15T00:57:50;36.57;;;22.77;;
17482;SDS011;8858;52.308;20.994;2022-12-15T01:00:38;36.77;;;23.43;;
17482;SDS011;8858;52.308;20.994;2022-12-15T01:03:24;35.37;;;22.30;;
17482;SDS011;8858;52.308;20.994;2022-12-15T01:06:11;36.60;;;23.63;;
17482;SDS011;8858;52.308;20.994;2022-12-15T01:08:59;33.40;;;22.77;;
17482;SDS011;8858;52.308;20.994;2022-12-15T01:11:46;34.43;;;22.30;;
17482;SDS011;8858;52.308;20.994;2022-12-15T01:14:32;32.47;;;21.73;;
17482;SDS011;8858;52.308;20.994;2022-12-15T01:17:20;32.40;;;22.90;;
17482;SDS011;8858;52.308;20.994;2022-12-15T01:20:06;40.33;;;23.93;;
17482;SDS011;8858;52.308;20.994;2022-12-15T01:22:44;35.03;;;22.70;;
17482;SDS011;8858;52.308;20.994;2022-12-15T01:25:13;120.43;;;74.17;;
17482;SDS011;8858;52.308;20.994;2022-12-15T01:27:43;50.23;;;31.60;;
17482;SDS011;8858;52.308;20.994;2022-12-15T01:30:17;38.13;;;24.33;;
17482;SDS011;8858;52.308;20.994;2022-12-15T01:32:48;34.50;;;23.17;;
17482;SDS011;8858;52.308;20.994;2022-12-15T01:35:16;38.00;;;23.20;;
17482;SDS011;8858;52.308;20.994;2022-12-15T01:37:49;34.77;;;23.10;;
17482;SDS011;8858;52.308;20.994;2022-12-15T01:40:19;33.87;;;22.90;;
17482;SDS011;8858;52.308;20.994;2022-12-15T01:43:09;32.90;;;22.60;;
17482;SDS011;8858;52.308;20.994;2022-12-15T01:45:50;34.50;;;22.43;;
17482;SDS011;8858;52.308;20.994;2022-12-15T01:48:27;37.07;;;23.40;;
17482;SDS011;8858;52.308;20.994;2022-12-15T01:51:08;34.53;;;22.77;;
17482;SDS011;8858;52.308;20.994;2022-12-15T01:53:42;34.67;;;23.30;;
17482;SDS011;8858;52.308;20.994;2022-12-15T01:56:18;34.50;;;23.97;;
17482;SDS011;8858;52.308;20.994;2022-12-15T01:58:49;34.47;;;23.43;;
17482;SDS011;8858;52.308;20.994;2022-12-15T02:01:25;37.03;;;23.23;;
17482;SDS011;8858;52.308;20.994;2022-12-15T02:03:55;35.17;;;22.13;;
17482;SDS011;8858;52.308;20.994;2022-12-15T02:06:25;36.57;;;23.93;;
17482;SDS011;8858;52.308;20.994;2022-12-15T02:08:57;34.03;;;23.30;;
17482;SDS011;8858;52.308;20.994;2022-12-15T02:11:44;35.23;;;23.27;;
17482;SDS011;8858;52.308;20.994;2022-12-15T02:14:28;38.83;;;23.60;;
17482;SDS011;8858;52.308;20.994;2022-12-15T02:17:07;34.50;;;22.40;;
17482;SDS011;8858;52.308;20.994;2022-12-15T02:19:58;34.43;;;22.40;;
17482;SDS011;8858;52.308;20.994;2022-12-15T02:22:45;35.73;;;22.73;;
17482;SDS011;8858;52.308;20.994;2022-12-15T02:25:36;33.47;;;23.07;;
17482;SDS011;8858;52.308;20.994;2022-12-15T02:28:19;33.17;;;22.10;;
17482;SDS011;8858;52.308;20.994;2022-12-15T02:30:54;33.07;;;21.77;;
17482;SDS011;8858;52.308;20.994;2022-12-15T02:33:50;34.57;;;22.30;;
17482;SDS011;8858;52.308;20.994;2022-12-15T02:36:23;34.77;;;22.67;;
17482;SDS011;8858;52.308;20.994;2022-12-15T02:38:56;35.13;;;22.33;;
17482;SDS011;8858;52.308;20.994;2022-12-15T02:41:32;34.63;;;22.00;;
17482;SDS011;8858;52.308;20.994;2022-12-15T02:44:03;37.77;;;23.27;;
17482;SDS011;8858;52.308;20.994;2022-12-15T02:46:43;34.40;;;22.07;;
17482;SDS011;8858;52.308;20.994;2022-12-15T02:49:30;36.40;;;22.07;;
17482;SDS011;8858;52.308;20.994;2022-12-15T02:52:08;33.33;;;22.50;;
17482;SDS011;8858;52.308;20.994;2022-12-15T02:54:54;33.33;;;21.60;;
17482;SDS011;8858;52.308;20.994;2022-12-15T02:57:31;35.30;;;22.53;;
17482;SDS011;8858;52.308;20.994;2022-12-15T03:00:08;36.70;;;23.87;;
17482;SDS011;8858;52.308;20.994;2022-12-15T03:02:43;36.60;;;23.80;;
17482;SDS011;8858;52.308;20.994;2022-12-15T03:05:14;36.47;;;24.27;;
17482;SDS011;8858;52.308;20.994;2022-12-15T03:07:44;37.60;;;22.43;;
17482;SDS011;8858;52.308;20.994;2022-12-15T03:10:16;38.33;;;23.27;;
17482;SDS011;8858;52.308;20.994;2022-12-15T03:12:46;36.67;;;24.03;;
17482;SDS011;8858;52.308;20.994;2022-12-15T03:15:15;36.80;;;23.77;;
17482;SDS011;8858;52.308;20.994;2022-12-15T03:17:45;36.73;;;23.67;;
17482;SDS011;8858;52.308;20.994;2022-12-15T03:20:13;35.57;;;22.97;;
17482;SDS011;8858;52.308;20.994;2022-12-15T03:22:46;34.47;;;23.70;;
17482;SDS011;8858;52.308;20.994;2022-12-15T03:25:14;36.03;;;23.37;;
17482;SDS011;8858;52.308;20.994;2022-12-15T03:27:44;38.43;;;24.23;;
17482;SDS011;8858;52.308;20.994;2022-12-15T03:30:13;37.20;;;24.40;;
17482;SDS011;8858;52.308;20.994;2022-12-15T03:32:42;35.13;;;24.00;;
17482;SDS011;8858;52.308;20.994;2022-12-15T03:35:13;38.27;;;24.27;;
17482;SDS011;8858;52.308;20.994;2022-12-15T03:37:41;38.97;;;25.70;;
17482;SDS011;8858;52.308;20.994;2022-12-15T03:40:10;38.57;;;23.33;;
17482;SDS011;8858;52.308;20.994;2022-12-15T03:42:42;38.73;;;24.60;;
17482;SDS011;8858;52.308;20.994;2022-12-15T03:45:18;36.10;;;24.67;;
17482;SDS011;8858;52.308;20.994;2022-12-15T03:47:48;44.43;;;26.90;;
17482;SDS011;8858;52.308;20.994;2022-12-15T03:50:20;51.37;;;28.80;;
17482;SDS011;8858;52.308;20.994;2022-12-15T03:52:50;69.83;;;32.67;;
17482;SDS011;8858;52.308;20.994;2022-12-15T03:55:19;74.30;;;33.93;;
17482;SDS011;8858;52.308;20.994;2022-12-15T03:57:48;66.83;;;33.50;;
17482;SDS011;8858;52.308;20.994;2022-12-15T04:00:18;68.07;;;35.80;;
17482;SDS011;8858;52.308;20.994;2022-12-15T04:02:48;59.57;;;32.07;;
17482;SDS011;8858;52.308;20.994;2022-12-15T04:05:18;51.03;;;29.50;;
17482;SDS011;8858;52.308;20.994;2022-12-15T04:07:52;48.57;;;27.83;;
17482;SDS011;8858;52.308;20.994;2022-12-15T04:10:24;44.83;;;26.97;;
17482;SDS011;8858;52.308;20.994;2022-12-15T04:13:00;40.97;;;25.77;;
17482;SDS011;8858;52.308;20.994;2022-12-15T04:15:30;42.73;;;26.17;;
17482;SDS011;8858;52.308;20.994;2022-12-15T04:17:59;40.43;;;25.90;;
17482;SDS011;8858;52.308;20.994;2022-12-15T04:20:32;40.23;;;25.37;;
17482;SDS011;8858;52.308;20.994;2022-12-15T04:23:01;40.73;;;25.37;;
17482;SDS011;8858;52.308;20.994;2022-12-15T04:25:33;40.47;;;26.30;;
17482;SDS011;8858;52.308;20.994;2022-12-15T04:28:20;40.67;;;24.63;;
17482;SDS011;8858;52.308;20.994;2022-12-15T04:31:08;41.07;;;26.70;;
17482;SDS011;8858;52.308;20.994;2022-12-15T04:33:56;38.83;;;26.30;;
17482;SDS011;8858;52.308;20.994;2022-12-15T04:36:48;41.87;;;27.80;;
17482;SDS011;8858;52.308;20.994;2022-12-15T04:39:37;36.67;;;24.63;;
17482;SDS011;8858;52.308;20.994;2022-12-15T04:42:29;40.37;;;25.77;;
17482;SDS011;8858;52.308;20.994;2022-12-15T04:45:17;36.13;;;24.97;;
17482;SDS011;8858;52.308;20.994;2022-12-15T04:48:06;40.37;;;26.07;;
17482;SDS011;8858;52.308;20.994;2022-12-15T04:50:53;43.37;;;26.77;;
17482;SDS011;8858;52.308;20.994;2022-12-15T04:53:41;41.37;;;26.63;;
17482;SDS011;8858;52.308;20.994;2022-12-15T04:56:28;44.53;;;26.70;;
17482;SDS011;8858;52.308;20.994;2022-12-15T04:59:16;44.33;;;27.10;;
17482;SDS011;8858;52.308;20.994;2022-12-15T05:02:02;43.33;;;24.90;;
17482;SDS011;8858;52.308;20.994;2022-12-15T05:04:49;44.80;;;26.23;;
17482;SDS011;8858;52.308;20.994;2022-12-15T05:07:34;49.30;;;26.03;;
17482;SDS011;8858;52.308;20.994;2022-12-15T05:10:22;46.83;;;26.27;;
17482;SDS011;8858;52.308;20.994;2022-12-15T05:13:07;46.27;;;27.00;;
17482;SDS011;8858;52.308;20.994;2022-12-15T05:15:53;49.00;;;27.63;;
17482;SDS011;8858;52.308;20.994;2022-12-15T05:18:39;46.03;;;28.33;;
17482;SDS011;8858;52.308;20.994;2022-12-15T05:21:29;39.27;;;26.03;;
17482;SDS011;8858;52.308;20.994;2022-12-15T05:24:17;40.23;;;25.33;;
17482;SDS011;8858;52.308;20.994;2022-12-15T05:27:05;37.53;;;25.80;;
17482;SDS011;8858;52.308;20.994;2022-12-15T05:29:55;40.17;;;27.13;;
17482;SDS011;8858;52.308;20.994;2022-12-15T05:32:40;43.20;;;27.77;;
17482;SDS011;8858;52.308;20.994;2022-12-15T05:35:09;45.23;;;27.57;;
17482;SDS011;8858;52.308;20.994;2022-12-15T05:37:37;42.63;;;27.90;;
17482;SDS011;8858;52.308;20.994;2022-12-15T05:40:06;43.03;;;26.60;;
17482;SDS011;8858;52.308;20.994;2022-12-15T05:42:36;42.83;;;26.77;;
17482;SDS011;8858;52.308;20.994;2022-12-15T05:45:05;43.73;;;27.73;;
17482;SDS011;8858;52.308;20.994;2022-12-15T05:47:35;52.00;;;30.87;;
17482;SDS011;8858;52.308;20.994;2022-12-15T05:50:07;52.07;;;31.87;;
17482;SDS011;8858;52.308;20.994;2022-12-15T05:52:35;48.10;;;30.67;;
17482;SDS011;8858;52.308;20.994;2022-12-15T05:55:03;51.37;;;28.43;;
17482;SDS011;8858;52.308;20.994;2022-12-15T05:57:33;42.37;;;27.30;;
17482;SDS011;8858;52.308;20.994;2022-12-15T06:00:02;50.53;;;28.63;;
17482;SDS011;8858;52.308;20.994;2022-12-15T06:02:37;46.67;;;29.17;;
17482;SDS011;8858;52.308;20.994;2022-12-15T06:05:05;42.00;;;27.00;;
17482;SDS011;8858;52.308;20.994;2022-12-15T06:07:35;45.57;;;27.23;;
17482;SDS011;8858;52.308;20.994;2022-12-15T06:10:04;41.10;;;26.23;;
17482;SDS011;8858;52.308;20.994;2022-12-15T06:12:32;41.97;;;26.97;;
17482;SDS011;8858;52.308;20.994;2022-12-15T06:15:05;45.70;;;27.53;;
17482;SDS011;8858;52.308;20.994;2022-12-15T06:17:35;42.83;;;26.60;;
17482;SDS011;8858;52.308;20.994;2022-12-15T06:20:03;41.03;;;26.63;;
17482;SDS011;8858;52.308;20.994;2022-12-15T06:22:33;44.33;;;28.47;;
17482;SDS011;8858;52.308;20.994;2022-12-15T06:25:01;44.60;;;28.30;;
17482;SDS011;8858;52.308;20.994;2022-12-15T06:27:34;50.60;;;30.17;;
17482;SDS011;8858;52.308;20.994;2022-12-15T06:30:03;47.80;;;30.43;;
17482;SDS011;8858;52.308;20.994;2022-12-15T06:32:37;55.37;;;30.93;;
17482;SDS011;8858;52.308;20.994;2022-12-15T06:35:06;45.80;;;29.70;;
17482;SDS011;8858;52.308;20.994;2022-12-15T06:37:38;52.23;;;30.47;;
17482;SDS011;8858;52.308;20.994;2022-12-15T06:40:06;47.07;;;28.10;;
17482;SDS011;8858;52.308;20.994;2022-12-15T06:42:36;49.80;;;28.53;;
17482;SDS011;8858;52.308;20.994;2022-12-15T06:45:09;49.87;;;29.30;;
17482;SDS011;8858;52.308;20.994;2022-12-15T06:47:38;49.50;;;29.00;;
17482;SDS011;8858;52.308;20.994;2022-12-15T06:50:07;50.53;;;30.80;;
17482;SDS011;8858;52.308;20.994;2022-12-15T06:52:36;54.10;;;30.53;;
17482;SDS011;8858;52.308;20.994;2022-12-15T06:55:05;55.67;;;31.43;;
17482;SDS011;8858;52.308;20.994;2022-12-15T06:57:35;53.03;;;32.73;;
17482;SDS011;8858;52.308;20.994;2022-12-15T07:00:05;49.43;;;28.67;;
17482;SDS011;8858;52.308;20.994;2022-12-15T07:02:38;52.53;;;31.10;;
17482;SDS011;8858;52.308;20.994;2022-12-15T07:05:15;60.73;;;33.13;;
17482;SDS011;8858;52.308;20.994;2022-12-15T07:07:45;49.90;;;30.50;;
17482;SDS011;8858;52.308;20.994;2022-12-15T07:10:14;53.37;;;32.20;;
17482;SDS011;8858;52.308;20.994;2022-12-15T07:12:44;49.77;;;30.53;;
17482;SDS011;8858;52.308;20.994;2022-12-15T07:15:12;54.57;;;31.53;;
17482;SDS011;8858;52.308;20.994;2022-12-15T07:17:42;50.77;;;30.67;;
17482;SDS011;8858;52.308;20.994;2022-12-15T07:20:11;49.20;;;31.23;;
17482;SDS011;8858;52.308;20.994;2022-12-15T07:22:39;53.57;;;31.10;;
17482;SDS011;8858;52.308;20.994;2022-12-15T07:25:08;49.23;;;29.57;;
17482;SDS011;8858;52.308;20.994;2022-12-15T07:27:40;50.97;;;30.17;;
17482;SDS011;8858;52.308;20.994;2022-12-15T07:30:08;50.40;;;31.10;;
17482;SDS011;8858;52.308;20.994;2022-12-15T07:32:39;48.03;;;29.37;;
17482;SDS011;8858;52.308;20.994;2022-12-15T07:35:08;45.10;;;25.90;;
17482;SDS011;8858;52.308;20.994;2022-12-15T07:37:38;49.33;;;28.17;;
17482;SDS011;8858;52.308;20.994;2022-12-15T07:40:06;47.23;;;27.07;;
17482;SDS011;8858;52.308;20.994;2022-12-15T07:42:36;48.13;;;29.23;;
17482;SDS011;8858;52.308;20.994;2022-12-15T07:45:04;51.83;;;31.57;;
17482;SDS011;8858;52.308;20.994;2022-12-15T07:47:33;54.37;;;29.53;;
17482;SDS011;8858;52.308;20.994;2022-12-15T07:50:03;45.97;;;28.87;;
17482;SDS011;8858;52.308;20.994;2022-12-15T07:52:37;50.90;;;27.00;;
17482;SDS011;8858;52.308;20.994;2022-12-15T07:55:05;43.30;;;27.07;;
17482;SDS011;8858;52.308;20.994;2022-12-15T07:57:37;46.10;;;27.47;;
17482;SDS011;8858;52.308;20.994;2022-12-15T08:00:07;42.37;;;23.13;;
17482;SDS011;8858;52.308;20.994;2022-12-15T08:02:38;40.93;;;24.37;;
17482;SDS011;8858;52.308;20.994;2022-12-15T08:05:07;35.53;;;22.77;;
17482;SDS011;8858;52.308;20.994;2022-12-15T08:07:38;39.77;;;24.23;;
17482;SDS011;8858;52.308;20.994;2022-12-15T08:10:11;40.97;;;24.40;;
17482;SDS011;8858;52.308;20.994;2022-12-15T08:12:39;39.43;;;23.87;;
17482;SDS011;8858;52.308;20.994;2022-12-15T08:15:07;43.87;;;24.83;;
17482;SDS011;8858;52.308;20.994;2022-12-15T08:17:37;35.23;;;23.33;;
17482;SDS011;8858;52.308;20.994;2022-12-15T08:20:06;39.80;;;23.97;;
17482;SDS011;8858;52.308;20.994;2022-12-15T08:22:40;35.63;;;22.53;;
17482;SDS011;8858;52.308;20.994;2022-12-15T08:25:08;37.90;;;23.60;;
17482;SDS011;8858;52.308;20.994;2022-12-15T08:27:40;35.23;;;23.03;;
17482;SDS011;8858;52.308;20.994;2022-12-15T08:30:09;37.60;;;24.50;;
17482;SDS011;8858;52.308;20.994;2022-12-15T08:32:38;41.13;;;24.43;;
17482;SDS011;8858;52.308;20.994;2022-12-15T08:35:17;43.77;;;26.03;;
17482;SDS011;8858;52.308;20.994;2022-12-15T08:38:07;45.60;;;26.87;;
17482;SDS011;8858;52.308;20.994;2022-12-15T08:40:36;40.63;;;24.30;;
17482;SDS011;8858;52.308;20.994;2022-12-15T08:43:05;41.00;;;23.07;;
17482;SDS011;8858;52.308;20.994;2022-12-15T08:45:34;42.87;;;25.67;;
17482;SDS011;8858;52.308;20.994;2022-12-15T08:48:04;40.50;;;23.17;;
17482;SDS011;8858;52.308;20.994;2022-12-15T08:50:32;40.53;;;23.90;;
17482;SDS011;8858;52.308;20.994;2022-12-15T08:53:01;41.37;;;24.10;;
17482;SDS011;8858;52.308;20.994;2022-12-15T08:55:52;43.17;;;25.23;;
17482;SDS011;8858;52.308;20.994;2022-12-15T08:58:20;41.87;;;25.97;;
17482;SDS011;8858;52.308;20.994;2022-12-15T09:00:48;43.77;;;25.03;;
17482;SDS011;8858;52.308;20.994;2022-12-15T09:03:17;42.93;;;25.17;;
17482;SDS011;8858;52.308;20.994;2022-12-15T09:05:49;39.33;;;25.73;;
17482;SDS011;8858;52.308;20.994;2022-12-15T09:08:18;39.03;;;24.83;;
17482;SDS011;8858;52.308;20.994;2022-12-15T09:10:47;37.67;;;23.50;;
17482;SDS011;8858;52.308;20.994;2022-12-15T09:13:19;34.37;;;21.23;;
17482;SDS011;8858;52.308;20.994;2022-12-15T09:15:53;33.97;;;20.80;;
17482;SDS011;8858;52.308;20.994;2022-12-15T09:18:35;30.37;;;19.43;;
17482;SDS011;8858;52.308;20.994;2022-12-15T09:21:05;34.60;;;21.57;;
17482;SDS011;8858;52.308;20.994;2022-12-15T09:23:34;40.83;;;23.27;;
17482;SDS011;8858;52.308;20.994;2022-12-15T09:26:04;40.77;;;24.30;;
17482;SDS011;8858;52.308;20.994;2022-12-15T09:28:35;40.77;;;25.50;;
17482;SDS011;8858;52.308;20.994;2022-12-15T09:31:05;41.00;;;25.07;;
17482;SDS011;8858;52.308;20.994;2022-12-15T09:33:35;40.97;;;26.20;;
17482;SDS011;8858;52.308;20.994;2022-12-15T09:36:04;39.93;;;25.37;;
17482;SDS011;8858;52.308;20.994;2022-12-15T09:38:34;41.00;;;25.13;;
17482;SDS011;8858;52.308;20.994;2022-12-15T09:41:07;41.10;;;26.30;;
17482;SDS011;8858;52.308;20.994;2022-12-15T09:43:44;40.47;;;25.07;;
17482;SDS011;8858;52.308;20.994;2022-12-15T09:46:22;43.17;;;25.53;;
17482;SDS011;8858;52.308;20.994;2022-12-15T09:48:57;42.03;;;25.33;;
17482;SDS011;8858;52.308;20.994;2022-12-15T09:51:32;29.87;;;16.37;;
17482;SDS011;8858;52.308;20.994;2022-12-15T09:54:07;32.47;;;19.37;;
17482;SDS011;8858;52.308;20.994;2022-12-15T09:56:38;30.13;;;18.97;;
17482;SDS011;8858;52.308;20.994;2022-12-15T09:59:21;28.47;;;17.37;;
17482;SDS011;8858;52.308;20.994;2022-12-15T10:01:59;34.30;;;20.13;;
17482;SDS011;8858;52.308;20.994;2022-12-15T10:04:45;33.80;;;18.53;;
17482;SDS011;8858;52.308;20.994;2022-12-15T10:07:31;30.33;;;17.10;;
17482;SDS011;8858;52.308;20.994;2022-12-15T10:10:06;31.27;;;18.17;;
17482;SDS011;8858;52.308;20.994;2022-12-15T10:12:42;35.63;;;20.57;;
17482;SDS011;8858;52.308;20.994;2022-12-15T10:15:54;34.07;;;18.67;;
17482;SDS011;8858;52.308;20.994;2022-12-15T10:18:31;34.07;;;21.27;;
17482;SDS011;8858;52.308;20.994;2022-12-15T10:21:08;34.43;;;21.00;;
17482;SDS011;8858;52.308;20.994;2022-12-15T10:23:40;38.83;;;21.70;;
17482;SDS011;8858;52.308;20.994;2022-12-15T10:26:13;36.60;;;20.60;;
17482;SDS011;8858;52.308;20.994;2022-12-15T10:28:52;38.57;;;22.63;;
17482;SDS011;8858;52.308;20.994;2022-12-15T10:31:35;41.73;;;22.07;;
17482;SDS011;8858;52.308;20.994;2022-12-15T10:34:15;40.77;;;22.73;;
17482;SDS011;8858;52.308;20.994;2022-12-15T10:36:51;40.63;;;24.77;;
17482;SDS011;8858;52.308;20.994;2022-12-15T10:39:21;38.37;;;21.13;;
17482;SDS011;8858;52.308;20.994;2022-12-15T10:42:17;38.47;;;22.77;;
17482;SDS011;8858;52.308;20.994;2022-12-15T10:44:50;42.00;;;24.20;;
17482;SDS011;8858;52.308;20.994;2022-12-15T10:47:23;38.80;;;24.43;;
17482;SDS011;8858;52.308;20.994;2022-12-15T10:49:54;41.73;;;25.47;;
17482;SDS011;8858;52.308;20.994;2022-12-15T10:52:49;50.90;;;27.20;;
17482;SDS011;8858;52.308;20.994;2022-12-15T10:55:34;45.80;;;26.80;;
17482;SDS011;8858;52.308;20.994;2022-12-15T10:58:16;45.27;;;27.43;;
17482;SDS011;8858;52.308;20.994;2022-12-15T11:01:03;46.87;;;26.63;;
17482;SDS011;8858;52.308;20.994;2022-12-15T11:03:36;50.07;;;28.57;;
17482;SDS011;8858;52.308;20.994;2022-12-15T11:06:14;56.70;;;32.33;;
17482;SDS011;8858;52.308;20.994;2022-12-15T11:08:49;54.20;;;31.67;;
17482;SDS011;8858;52.308;20.994;2022-12-15T11:11:23;52.63;;;30.60;;
17482;SDS011;8858;52.308;20.994;2022-12-15T11:14:16;53.43;;;27.80;;
17482;SDS011;8858;52.308;20.994;2022-12-15T11:16:50;53.83;;;30.83;;
17482;SDS011;8858;52.308;20.994;2022-12-15T11:19:29;53.43;;;31.53;;
17482;SDS011;8858;52.308;20.994;2022-12-15T11:22:04;51.53;;;29.07;;
17482;SDS011;8858;52.308;20.994;2022-12-15T11:24:40;53.07;;;28.93;;
17482;SDS011;8858;52.308;20.994;2022-12-15T11:27:17;50.47;;;28.60;;
17482;SDS011;8858;52.308;20.994;2022-12-15T11:29:55;49.60;;;29.60;;
17482;SDS011;8858;52.308;20.994;2022-12-15T11:32:31;52.03;;;29.23;;
17482;SDS011;8858;52.308;20.994;2022-12-15T11:35:03;56.50;;;29.07;;
17482;SDS011;8858;52.308;20.994;2022-12-15T11:37:42;52.47;;;30.40;;
17482;SDS011;8858;52.308;20.994;2022-12-15T11:43:27;44.83;;;25.70;;
17482;SDS011;8858;52.308;20.994;2022-12-15T11:46:10;47.57;;;27.53;;
17482;SDS011;8858;52.308;20.994;2022-12-15T11:48:58;43.83;;;25.33;;
17482;SDS011;8858;52.308;20.994;2022-12-15T11:51:43;43.17;;;26.27;;
17482;SDS011;8858;52.308;20.994;2022-12-15T11:54:17;46.00;;;24.03;;
17482;SDS011;8858;52.308;20.994;2022-12-15T11:56:51;47.57;;;25.20;;
17482;SDS011;8858;52.308;20.994;2022-12-15T11:59:42;42.77;;;24.33;;
17482;SDS011;8858;52.308;20.994;2022-12-15T12:02:25;40.00;;;21.50;;
17482;SDS011;8858;52.308;20.994;2022-12-15T12:05:17;45.40;;;26.77;;
17482;SDS011;8858;52.308;20.994;2022-12-15T12:07:58;47.80;;;26.87;;
17482;SDS011;8858;52.308;20.994;2022-12-15T12:10:38;46.40;;;26.17;;
17482;SDS011;8858;52.308;20.994;2022-12-15T12:13:15;41.53;;;23.37;;
17482;SDS011;8858;52.308;20.994;2022-12-15T12:15:53;36.10;;;19.97;;
17482;SDS011;8858;52.308;20.994;2022-12-15T12:18:34;41.03;;;23.50;;
17482;SDS011;8858;52.308;20.994;2022-12-15T12:21:06;46.37;;;25.50;;
17482;SDS011;8858;52.308;20.994;2022-12-15T12:23:41;44.90;;;25.37;;
17482;SDS011;8858;52.308;20.994;2022-12-15T12:26:18;42.43;;;22.30;;
17482;SDS011;8858;52.308;20.994;2022-12-15T12:28:52;45.00;;;24.03;;
17482;SDS011;8858;52.308;20.994;2022-12-15T12:31:28;44.07;;;24.73;;
17482;SDS011;8858;52.308;20.994;2022-12-15T12:34:07;46.03;;;24.87;;
17482;SDS011;8858;52.308;20.994;2022-12-15T12:36:39;42.47;;;22.83;;
17482;SDS011;8858;52.308;20.994;2022-12-15T12:39:20;44.87;;;24.70;;
17482;SDS011;8858;52.308;20.994;2022-12-15T12:41:54;47.90;;;23.90;;
17482;SDS011;8858;52.308;20.994;2022-12-15T12:44:30;48.00;;;25.90;;
17482;SDS011;8858;52.308;20.994;2022-12-15T12:47:04;45.47;;;25.20;;
17482;SDS011;8858;52.308;20.994;2022-12-15T12:49:38;42.47;;;25.03;;
17482;SDS011;8858;52.308;20.994;2022-12-15T12:52:33;51.63;;;26.43;;
17482;SDS011;8858;52.308;20.994;2022-12-15T12:55:18;46.30;;;25.93;;
17482;SDS011;8858;52.308;20.994;2022-12-15T12:57:52;46.70;;;25.07;;
17482;SDS011;8858;52.308;20.994;2022-12-15T13:00:22;43.33;;;24.80;;
17482;SDS011;8858;52.308;20.994;2022-12-15T13:03:12;45.73;;;26.80;;
17482;SDS011;8858;52.308;20.994;2022-12-15T13:05:46;44.10;;;24.70;;
17482;SDS011;8858;52.308;20.994;2022-12-15T13:14:53;48.33;;;27.13;;
17482;SDS011;8858;52.308;20.994;2022-12-15T13:17:28;49.80;;;27.40;;
17482;SDS011;8858;52.308;20.994;2022-12-15T13:20:04;48.23;;;26.00;;
17482;SDS011;8858;52.308;20.994;2022-12-15T13:22:45;45.20;;;26.83;;
17482;SDS011;8858;52.308;20.994;2022-12-15T13:28:24;46.13;;;27.13;;
17482;SDS011;8858;52.308;20.994;2022-12-15T13:31:24;52.80;;;27.37;;
17482;SDS011;8858;52.308;20.994;2022-12-15T13:33:55;50.70;;;26.77;;
17482;SDS011;8858;52.308;20.994;2022-12-15T13:36:42;50.70;;;27.37;;
17482;SDS011;8858;52.308;20.994;2022-12-15T13:39:34;50.93;;;27.30;;
17482;SDS011;8858;52.308;20.994;2022-12-15T13:42:28;50.93;;;27.93;;
17482;SDS011;8858;52.308;20.994;2022-12-15T13:48:30;47.30;;;25.90;;
17482;SDS011;8858;52.308;20.994;2022-12-15T13:51:03;50.70;;;27.53;;
17482;SDS011;8858;52.308;20.994;2022-12-15T13:53:38;56.40;;;30.57;;
17482;SDS011;8858;52.308;20.994;2022-12-15T13:56:20;48.60;;;27.63;;
17482;SDS011;8858;52.308;20.994;2022-12-15T13:58:58;53.13;;;28.97;;
17482;SDS011;8858;52.308;20.994;2022-12-15T14:01:31;54.20;;;29.97;;
17482;SDS011;8858;52.308;20.994;2022-12-15T14:04:08;57.20;;;31.07;;
17482;SDS011;8858;52.308;20.994;2022-12-15T14:06:44;47.70;;;28.93;;
17482;SDS011;8858;52.308;20.994;2022-12-15T14:09:18;54.50;;;29.67;;
17482;SDS011;8858;52.308;20.994;2022-12-15T14:11:49;56.53;;;30.80;;
17482;SDS011;8858;52.308;20.994;2022-12-15T14:14:21;52.33;;;30.60;;
17482;SDS011;8858;52.308;20.994;2022-12-15T14:16:57;54.53;;;30.43;;
17482;SDS011;8858;52.308;20.994;2022-12-15T14:19:36;57.33;;;29.40;;
17482;SDS011;8858;52.308;20.994;2022-12-15T14:22:16;52.53;;;28.77;;
17482;SDS011;8858;52.308;20.994;2022-12-15T14:24:59;51.67;;;27.13;;
17482;SDS011;8858;52.308;20.994;2022-12-15T14:27:33;45.83;;;23.70;;
17482;SDS011;8858;52.308;20.994;2022-12-15T14:30:11;41.97;;;23.77;;
17482;SDS011;8858;52.308;20.994;2022-12-15T14:32:55;47.70;;;24.90;;
17482;SDS011;8858;52.308;20.994;2022-12-15T14:35:30;45.93;;;24.30;;
17482;SDS011;8858;52.308;20.994;2022-12-15T14:38:10;47.63;;;23.47;;
17482;SDS011;8858;52.308;20.994;2022-12-15T14:40:41;45.60;;;23.37;;
17482;SDS011;8858;52.308;20.994;2022-12-15T14:43:17;37.10;;;21.27;;
17482;SDS011;8858;52.308;20.994;2022-12-15T14:45:54;39.53;;;22.53;;
17482;SDS011;8858;52.308;20.994;2022-12-15T14:48:32;39.03;;;20.93;;
17482;SDS011;8858;52.308;20.994;2022-12-15T14:51:09;37.07;;;21.30;;
17482;SDS011;8858;52.308;20.994;2022-12-15T14:53:40;40.87;;;22.30;;
17482;SDS011;8858;52.308;20.994;2022-12-15T14:56:22;39.83;;;22.43;;
17482;SDS011;8858;52.308;20.994;2022-12-15T14:58:57;37.27;;;20.60;;
17482;SDS011;8858;52.308;20.994;2022-12-15T15:01:33;38.17;;;20.37;;
17482;SDS011;8858;52.308;20.994;2022-12-15T15:04:19;39.47;;;21.73;;
17482;SDS011;8858;52.308;20.994;2022-12-15T15:06:53;41.03;;;21.57;;
17482;SDS011;8858;52.308;20.994;2022-12-15T15:09:24;41.97;;;23.37;;
17482;SDS011;8858;52.308;20.994;2022-12-15T15:11:55;39.03;;;22.17;;
17482;SDS011;8858;52.308;20.994;2022-12-15T15:14:26;40.73;;;21.43;;
17482;SDS011;8858;52.308;20.994;2022-12-15T15:17:04;40.20;;;20.90;;
17482;SDS011;8858;52.308;20.994;2022-12-15T15:19:35;38.13;;;20.77;;
17482;SDS011;8858;52.308;20.994;2022-12-15T15:22:17;38.17;;;20.23;;
17482;SDS011;8858;52.308;20.994;2022-12-15T15:24:54;41.77;;;21.20;;
17482;SDS011;8858;52.308;20.994;2022-12-15T15:27:23;40.73;;;21.10;;
17482;SDS011;8858;52.308;20.994;2022-12-15T15:30:05;37.33;;;19.20;;